sensor_id;sensor_type;location;lat;lon;timestamp;pressure;altitude;pressure_sealevel;temperature;humidity
72802;BME280;61891;55.818;37.084;2022-08-03T00:01:32;99560.28;;;18.66;52.77
72802;BME280;61891;55.818;37.084;2022-08-03T00:03:58;99548.53;;;18.54;52.62
72802;BME280;61891;55.818;37.084;2022-08-03T00:06:24;99571.84;;;18.60;52.78
72802;BME280;61891;55.818;37.084;2022-08-03T00:08:49;99569.16;;;18.60;53.03
72802;BME280;61891;55.818;37.084;2022-08-03T00:11:15;99572.25;;;18.57;53.16
72802;BME280;61891;55.818;37.084;2022-08-03T00:13:41;99549.59;;;18.47;53.01
72802;BME280;61891;55.818;37.084;2022-08-03T00:16:07;99567.53;;;18.53;53.28
72802;BME280;61891;55.818;37.084;2022-08-03T00:18:32;99572.06;;;18.52;53.31
72802;BME280;61891;55.818;37.084;2022-08-03T00:20:58;99573.31;;;18.50;53.22
72802;BME280;61891;55.818;37.084;2022-08-03T00:23:24;99567.56;;;18.46;53.63
72802;BME280;61891;55.818;37.084;2022-08-03T00:25:49;99576.22;;;18.48;54.00
72802;BME280;61891;55.818;37.084;2022-08-03T00:28:15;99582.63;;;18.47;53.60
72802;BME280;61891;55.818;37.084;2022-08-03T00:30:41;99580.97;;;18.46;53.59
72802;BME280;61891;55.818;37.084;2022-08-03T00:33:07;99577.69;;;18.44;53.66
72802;BME280;61891;55.818;37.084;2022-08-03T00:35:34;99570.69;;;18.36;53.69
72802;BME280;61891;55.818;37.084;2022-08-03T00:38:00;99583.25;;;18.43;53.63
72802;BME280;61891;55.818;37.084;2022-08-03T00:40:26;99565.78;;;18.27;54.18
72802;BME280;61891;55.818;37.084;2022-08-03T00:42:56;99562.25;;;18.26;54.11
72802;BME280;61891;55.818;37.084;2022-08-03T00:45:24;99499.25;;;17.84;53.87
72802;BME280;61891;55.818;37.084;2022-08-03T00:47:50;99587.22;;;18.33;53.91
72802;BME280;61891;55.818;37.084;2022-08-03T00:50:17;99580.41;;;18.31;54.00
72802;BME280;61891;55.818;37.084;2022-08-03T00:52:43;99568.28;;;18.22;54.23
72802;BME280;61891;55.818;37.084;2022-08-03T00:55:09;99578.78;;;18.23;54.91
72802;BME280;61891;55.818;37.084;2022-08-03T00:57:36;99580.25;;;18.19;54.16
72802;BME280;61891;55.818;37.084;2022-08-03T01:00:04;99567.88;;;18.12;54.91
72802;BME280;61891;55.818;37.084;2022-08-03T01:02:30;99562.94;;;18.09;54.41
72802;BME280;61891;55.818;37.084;2022-08-03T01:04:56;99566.84;;;18.13;54.37
72802;BME280;61891;55.818;37.084;2022-08-03T01:10:27;99563.38;;;18.06;54.58
72802;BME280;61891;55.818;37.084;2022-08-03T01:13:02;99558.41;;;18.02;54.83
72802;BME280;61891;55.818;37.084;2022-08-03T01:15:39;99566.88;;;17.99;54.96
72802;BME280;61891;55.818;37.084;2022-08-03T01:18:20;99516.00;;;17.66;55.15
72802;BME280;61891;55.818;37.084;2022-08-03T01:20:48;99559.06;;;17.91;54.96
72802;BME280;61891;55.818;37.084;2022-08-03T01:23:31;99560.09;;;17.90;55.44
72802;BME280;61891;55.818;37.084;2022-08-03T01:32:11;99567.94;;;17.85;55.35
72802;BME280;61891;55.818;37.084;2022-08-03T01:34:46;99561.97;;;17.83;55.71
72802;BME280;61891;55.818;37.084;2022-08-03T01:37:15;99559.72;;;17.74;55.66
72802;BME280;61891;55.818;37.084;2022-08-03T01:39:47;99567.13;;;17.78;55.72
72802;BME280;61891;55.818;37.084;2022-08-03T01:42:15;99558.88;;;17.73;55.70
72802;BME280;61891;55.818;37.084;2022-08-03T01:44:43;99564.03;;;17.68;55.73
72802;BME280;61891;55.818;37.084;2022-08-03T01:47:10;99557.22;;;17.65;55.73
72802;BME280;61891;55.818;37.084;2022-08-03T01:49:38;99570.22;;;17.75;56.29
72802;BME280;61891;55.818;37.084;2022-08-03T01:52:06;99540.72;;;17.55;55.59
72802;BME280;61891;55.818;37.084;2022-08-03T01:54:36;99558.47;;;17.69;56.22
72802;BME280;61891;55.818;37.084;2022-08-03T01:57:05;99568.38;;;17.76;56.06
72802;BME280;61891;55.818;37.084;2022-08-03T01:59:34;99549.38;;;17.64;55.72
72802;BME280;61891;55.818;37.084;2022-08-03T02:02:03;99541.53;;;17.62;55.54
72802;BME280;61891;55.818;37.084;2022-08-03T02:04:29;99574.13;;;17.79;55.64
72802;BME280;61891;55.818;37.084;2022-08-03T02:06:56;99568.38;;;17.69;55.90
72802;BME280;61891;55.818;37.084;2022-08-03T02:09:24;99534.34;;;17.50;55.65
72802;BME280;61891;55.818;37.084;2022-08-03T02:11:52;99566.94;;;17.73;55.71
72802;BME280;61891;55.818;37.084;2022-08-03T02:14:21;99576.63;;;17.81;55.68
72802;BME280;61891;55.818;37.084;2022-08-03T02:16:48;99580.31;;;17.86;56.05
72802;BME280;61891;55.818;37.084;2022-08-03T02:19:15;99554.97;;;17.69;55.76
72802;BME280;61891;55.818;37.084;2022-08-03T02:21:43;99542.38;;;17.63;55.95
72802;BME280;61891;55.818;37.084;2022-08-03T02:24:10;99588.78;;;17.90;55.98
72802;BME280;61891;55.818;37.084;2022-08-03T02:26:37;99552.91;;;17.71;56.10
72802;BME280;61891;55.818;37.084;2022-08-03T02:29:12;99553.53;;;17.73;56.56
72802;BME280;61891;55.818;37.084;2022-08-03T02:31:40;99584.63;;;18.00;56.24
72802;BME280;61891;55.818;37.084;2022-08-03T02:34:11;99576.78;;;17.99;56.38
72802;BME280;61891;55.818;37.084;2022-08-03T02:36:39;99577.19;;;18.02;55.61
72802;BME280;61891;55.818;37.084;2022-08-03T02:39:09;99597.19;;;18.13;56.02
72802;BME280;61891;55.818;37.084;2022-08-03T02:41:48;99577.38;;;18.08;56.51
72802;BME280;61891;55.818;37.084;2022-08-03T02:44:16;99593.88;;;18.18;56.03
72802;BME280;61891;55.818;37.084;2022-08-03T02:46:44;99593.88;;;18.18;56.55
72802;BME280;61891;55.818;37.084;2022-08-03T02:49:12;99595.53;;;18.19;56.10
72802;BME280;61891;55.818;37.084;2022-08-03T02:51:39;99591.81;;;18.20;56.56
72802;BME280;61891;55.818;37.084;2022-08-03T02:54:06;99592.22;;;18.23;56.54
72802;BME280;61891;55.818;37.084;2022-08-03T02:56:34;99582.72;;;18.21;55.99
72802;BME280;61891;55.818;37.084;2022-08-03T02:59:00;99567.69;;;18.13;56.35
72802;BME280;61891;55.818;37.084;2022-08-03T03:01:27;99599.81;;;18.33;56.34
72802;BME280;61891;55.818;37.084;2022-08-03T03:03:55;99596.31;;;18.32;56.26
72802;BME280;61891;55.818;37.084;2022-08-03T03:06:23;99579.41;;;18.25;56.25
72802;BME280;61891;55.818;37.084;2022-08-03T03:08:50;99602.47;;;18.46;55.83
72802;BME280;61891;55.818;37.084;2022-08-03T03:11:17;99596.88;;;18.48;55.62
72802;BME280;61891;55.818;37.084;2022-08-03T03:13:45;99551.31;;;18.28;55.77
72802;BME280;61891;55.818;37.084;2022-08-03T03:16:13;99604.91;;;18.61;55.77
72802;BME280;61891;55.818;37.084;2022-08-03T03:18:42;99604.91;;;18.61;56.00
72802;BME280;61891;55.818;37.084;2022-08-03T03:21:09;99576.84;;;18.50;56.13
72802;BME280;61891;55.818;37.084;2022-08-03T03:23:35;99595.81;;;18.62;55.89
72802;BME280;61891;55.818;37.084;2022-08-03T03:26:02;99611.66;;;18.77;55.97
72802;BME280;61891;55.818;37.084;2022-08-03T03:28:28;99600.72;;;18.72;55.45
72802;BME280;61891;55.818;37.084;2022-08-03T03:30:54;99590.81;;;18.72;56.14
72802;BME280;61891;55.818;37.084;2022-08-03T03:33:21;99610.56;;;18.91;55.92
72802;BME280;61891;55.818;37.084;2022-08-03T03:35:47;99585.19;;;18.80;55.91
72802;BME280;61891;55.818;37.084;2022-08-03T03:38:13;99615.47;;;19.00;55.77
72802;BME280;61891;55.818;37.084;2022-08-03T03:40:39;99617.28;;;19.07;55.34
72802;BME280;61891;55.818;37.084;2022-08-03T03:43:10;99609.19;;;19.13;55.98
72802;BME280;61891;55.818;37.084;2022-08-03T03:45:36;99615.13;;;19.22;55.55
72802;BME280;61891;55.818;37.084;2022-08-03T03:48:04;99615.69;;;19.30;55.48
72802;BME280;61891;55.818;37.084;2022-08-03T03:50:31;99600.44;;;19.24;55.99
72802;BME280;61891;55.818;37.084;2022-08-03T03:52:57;99622.63;;;19.45;55.54
72802;BME280;61891;55.818;37.084;2022-08-03T03:55:23;99612.66;;;19.52;55.25
72802;BME280;61891;55.818;37.084;2022-08-03T03:57:49;99624.81;;;19.61;55.48
72802;BME280;61891;55.818;37.084;2022-08-03T04:00:16;99617.50;;;19.68;55.07
72802;BME280;61891;55.818;37.084;2022-08-03T04:02:42;99614.97;;;19.73;55.34
72802;BME280;61891;55.818;37.084;2022-08-03T04:05:08;99590.59;;;19.68;55.42
72802;BME280;61891;55.818;37.084;2022-08-03T04:08:06;99542.41;;;19.42;55.20
72802;BME280;61891;55.818;37.084;2022-08-03T04:16:36;99584.09;;;20.01;54.66
72802;BME280;61891;55.818;37.084;2022-08-03T04:19:34;99575.13;;;20.07;54.66
72802;BME280;61891;55.818;37.084;2022-08-03T04:22:00;99624.69;;;20.42;54.32
72802;BME280;61891;55.818;37.084;2022-08-03T04:24:37;99619.28;;;20.42;54.29
72802;BME280;61891;55.818;37.084;2022-08-03T04:27:06;99627.97;;;20.63;54.11
72802;BME280;61891;55.818;37.084;2022-08-03T04:29:34;99628.72;;;20.70;53.75
72802;BME280;61891;55.818;37.084;2022-08-03T04:32:04;99636.34;;;20.91;53.49
72802;BME280;61891;55.818;37.084;2022-08-03T04:34:31;99631.56;;;20.93;53.74
72802;BME280;61891;55.818;37.084;2022-08-03T04:36:58;99634.53;;;21.03;53.86
72802;BME280;61891;55.818;37.084;2022-08-03T04:39:25;99636.53;;;21.08;53.25
72802;BME280;61891;55.818;37.084;2022-08-03T04:41:53;99593.81;;;20.93;53.11
72802;BME280;61891;55.818;37.084;2022-08-03T04:44:22;99641.44;;;21.29;53.22
72802;BME280;61891;55.818;37.084;2022-08-03T04:46:48;99612.84;;;21.28;52.63
72802;BME280;61891;55.818;37.084;2022-08-03T04:49:14;99641.06;;;21.55;52.98
72802;BME280;61891;55.818;37.084;2022-08-03T04:51:40;99615.00;;;21.49;52.92
72802;BME280;61891;55.818;37.084;2022-08-03T04:54:11;99656.81;;;21.70;52.82
72802;BME280;61891;55.818;37.084;2022-08-03T04:56:41;99642.84;;;21.73;52.72
72802;BME280;61891;55.818;37.084;2022-08-03T04:59:08;99641.56;;;21.76;52.43
72802;BME280;61891;55.818;37.084;2022-08-03T05:01:35;99648.97;;;21.80;52.80
72802;BME280;61891;55.818;37.084;2022-08-03T05:04:00;99648.03;;;21.86;52.91
72802;BME280;61891;55.818;37.084;2022-08-03T05:06:26;99648.03;;;21.86;52.52
72802;BME280;61891;55.818;37.084;2022-08-03T05:08:51;99643.94;;;21.96;53.13
72802;BME280;61891;55.818;37.084;2022-08-03T05:11:17;99643.97;;;22.07;52.38
72802;BME280;61891;55.818;37.084;2022-08-03T05:13:44;99630.69;;;22.06;52.48
72802;BME280;61891;55.818;37.084;2022-08-03T05:16:10;99652.16;;;22.36;52.29
72802;BME280;61891;55.818;37.084;2022-08-03T05:18:36;99639.81;;;22.51;51.79
72802;BME280;61891;55.818;37.084;2022-08-03T05:21:02;99646.31;;;22.79;51.66
72802;BME280;61891;55.818;37.084;2022-08-03T05:23:28;99645.69;;;23.00;51.16
72802;BME280;61891;55.818;37.084;2022-08-03T05:25:53;99654.19;;;23.21;51.02
72802;BME280;61891;55.818;37.084;2022-08-03T05:28:19;99651.53;;;23.37;50.77
72802;BME280;61891;55.818;37.084;2022-08-03T05:30:44;99649.47;;;23.56;51.04
72802;BME280;61891;55.818;37.084;2022-08-03T05:33:10;99644.78;;;23.68;50.33
72802;BME280;61891;55.818;37.084;2022-08-03T05:35:36;99642.84;;;23.81;50.65
72802;BME280;61891;55.818;37.084;2022-08-03T05:38:04;99643.88;;;23.96;49.83
72802;BME280;61891;55.818;37.084;2022-08-03T05:40:30;99646.09;;;24.16;49.09
72802;BME280;61891;55.818;37.084;2022-08-03T05:42:56;99642.69;;;24.26;49.25
72802;BME280;61891;55.818;37.084;2022-08-03T05:45:23;99656.69;;;24.56;48.83
72802;BME280;61891;55.818;37.084;2022-08-03T05:47:49;99637.03;;;24.66;48.32
72802;BME280;61891;55.818;37.084;2022-08-03T05:50:16;99658.53;;;24.94;48.02
72802;BME280;61891;55.818;37.084;2022-08-03T05:52:42;99652.25;;;25.11;47.63
72802;BME280;61891;55.818;37.084;2022-08-03T05:55:09;99653.78;;;25.28;47.43
72802;BME280;61891;55.818;37.084;2022-08-03T05:57:36;99657.50;;;25.49;47.16
72802;BME280;61891;55.818;37.084;2022-08-03T06:00:11;99647.56;;;25.60;46.32
72802;BME280;61891;55.818;37.084;2022-08-03T06:02:38;99658.69;;;25.85;45.80
72802;BME280;61891;55.818;37.084;2022-08-03T06:05:04;99649.78;;;25.95;45.61
72802;BME280;61891;55.818;37.084;2022-08-03T06:07:31;99662.50;;;26.21;45.33
72802;BME280;61891;55.818;37.084;2022-08-03T06:09:57;99629.88;;;26.21;45.01
72802;BME280;61891;55.818;37.084;2022-08-03T06:12:22;99659.44;;;26.50;45.02
72802;BME280;61891;55.818;37.084;2022-08-03T06:14:48;99649.44;;;26.60;45.17
72802;BME280;61891;55.818;37.084;2022-08-03T06:17:14;99645.91;;;26.65;44.66
72802;BME280;61891;55.818;37.084;2022-08-03T06:19:40;99654.41;;;26.79;44.41
72802;BME280;61891;55.818;37.084;2022-08-03T06:22:05;99643.25;;;26.80;44.31
72802;BME280;61891;55.818;37.084;2022-08-03T06:24:31;99658.00;;;26.94;43.97
72802;BME280;61891;55.818;37.084;2022-08-03T06:26:57;99652.34;;;27.01;43.90
72802;BME280;61891;55.818;37.084;2022-08-03T06:29:23;99654.78;;;27.03;44.05
72802;BME280;61891;55.818;37.084;2022-08-03T06:31:48;99615.81;;;26.92;43.97
72802;BME280;61891;55.818;37.084;2022-08-03T06:34:14;99646.66;;;27.18;43.64
72802;BME280;61891;55.818;37.084;2022-08-03T06:36:40;99664.66;;;27.34;43.50
72802;BME280;61891;55.818;37.084;2022-08-03T06:39:06;99651.63;;;27.41;43.11
72802;BME280;61891;55.818;37.084;2022-08-03T06:41:32;99653.25;;;27.47;42.60
72802;BME280;61891;55.818;37.084;2022-08-03T06:43:57;99652.22;;;27.64;42.67
72802;BME280;61891;55.818;37.084;2022-08-03T06:46:23;99655.47;;;27.76;42.32
72802;BME280;61891;55.818;37.084;2022-08-03T06:48:49;99659.28;;;27.80;41.91
72802;BME280;61891;55.818;37.084;2022-08-03T06:51:15;99656.28;;;27.86;41.54
72802;BME280;61891;55.818;37.084;2022-08-03T06:53:40;99650.03;;;27.96;41.51
72802;BME280;61891;55.818;37.084;2022-08-03T06:56:07;99657.38;;;28.01;41.06
72802;BME280;61891;55.818;37.084;2022-08-03T06:58:33;99660.91;;;28.06;41.02
72802;BME280;61891;55.818;37.084;2022-08-03T07:00:59;99645.38;;;28.07;41.19
72802;BME280;61891;55.818;37.084;2022-08-03T07:03:25;99626.28;;;28.07;40.47
72802;BME280;61891;55.818;37.084;2022-08-03T07:05:51;99644.28;;;28.28;40.36
72802;BME280;61891;55.818;37.084;2022-08-03T07:08:17;99662.78;;;28.41;40.13
72802;BME280;61891;55.818;37.084;2022-08-03T07:10:44;99661.41;;;28.49;39.61
72802;BME280;61891;55.818;37.084;2022-08-03T07:13:10;99651.88;;;28.41;38.72
72802;BME280;61891;55.818;37.084;2022-08-03T07:15:35;99651.03;;;28.46;38.41
72802;BME280;61891;55.818;37.084;2022-08-03T07:18:01;99612.34;;;28.34;38.62
72802;BME280;61891;55.818;37.084;2022-08-03T07:20:27;99661.88;;;28.71;37.96
72802;BME280;61891;55.818;37.084;2022-08-03T07:22:52;99637.34;;;28.66;37.42
72802;BME280;61891;55.818;37.084;2022-08-03T07:25:18;99665.66;;;28.91;37.44
72802;BME280;61891;55.818;37.084;2022-08-03T07:27:45;99657.94;;;29.03;37.37
72802;BME280;61891;55.818;37.084;2022-08-03T07:30:12;99667.47;;;29.05;37.53
72802;BME280;61891;55.818;37.084;2022-08-03T07:32:38;99644.84;;;29.00;36.14
72802;BME280;61891;55.818;37.084;2022-08-03T07:35:04;99666.63;;;29.10;36.67
72802;BME280;61891;55.818;37.084;2022-08-03T07:37:31;99675.91;;;29.14;35.86
72802;BME280;61891;55.818;37.084;2022-08-03T07:39:58;99669.84;;;29.22;36.09
72802;BME280;61891;55.818;37.084;2022-08-03T07:42:25;99638.56;;;29.04;35.30
72802;BME280;61891;55.818;37.084;2022-08-03T07:44:51;99667.06;;;29.32;34.76
72802;BME280;61891;55.818;37.084;2022-08-03T07:47:22;99657.50;;;29.30;34.57
72802;BME280;61891;55.818;37.084;2022-08-03T07:49:49;99649.53;;;29.38;34.29
72802;BME280;61891;55.818;37.084;2022-08-03T07:52:15;99650.84;;;29.51;33.88
72802;BME280;61891;55.818;37.084;2022-08-03T07:54:59;99670.34;;;29.73;33.69
72802;BME280;61891;55.818;37.084;2022-08-03T07:57:25;99672.47;;;29.81;33.84
72802;BME280;61891;55.818;37.084;2022-08-03T07:59:51;99668.31;;;29.89;33.69
72802;BME280;61891;55.818;37.084;2022-08-03T08:02:16;99653.56;;;29.85;33.42
72802;BME280;61891;55.818;37.084;2022-08-03T08:04:42;99663.31;;;29.96;33.25
72802;BME280;61891;55.818;37.084;2022-08-03T08:07:07;99675.19;;;30.15;33.51
72802;BME280;61891;55.818;37.084;2022-08-03T08:09:33;99677.25;;;30.29;32.84
72802;BME280;61891;55.818;37.084;2022-08-03T08:11:59;99675.81;;;30.36;32.72
72802;BME280;61891;55.818;37.084;2022-08-03T08:14:25;99685.88;;;30.41;32.25
72802;BME280;61891;55.818;37.084;2022-08-03T08:16:50;99679.25;;;30.47;32.98
72802;BME280;61891;55.818;37.084;2022-08-03T08:19:16;99683.03;;;30.51;33.14
72802;BME280;61891;55.818;37.084;2022-08-03T08:21:43;99672.75;;;30.43;32.83
72802;BME280;61891;55.818;37.084;2022-08-03T08:24:08;99677.81;;;30.55;32.50
72802;BME280;61891;55.818;37.084;2022-08-03T08:26:34;99682.38;;;30.64;32.80
72802;BME280;61891;55.818;37.084;2022-08-03T08:29:00;99683.38;;;30.73;32.80
72802;BME280;61891;55.818;37.084;2022-08-03T08:31:26;99664.91;;;30.84;32.14
72802;BME280;61891;55.818;37.084;2022-08-03T08:33:52;99670.09;;;31.04;32.53
72802;BME280;61891;55.818;37.084;2022-08-03T08:36:17;99659.28;;;31.18;31.44
72802;BME280;61891;55.818;37.084;2022-08-03T08:38:43;99647.16;;;31.24;31.72
72802;BME280;61891;55.818;37.084;2022-08-03T08:41:10;99665.16;;;31.49;31.68
72802;BME280;61891;55.818;37.084;2022-08-03T08:43:36;99672.78;;;31.71;31.81
72802;BME280;61891;55.818;37.084;2022-08-03T08:46:02;99648.41;;;31.69;30.76
72802;BME280;61891;55.818;37.084;2022-08-03T08:48:28;99674.75;;;31.84;32.36
72802;BME280;61891;55.818;37.084;2022-08-03T08:50:55;99669.97;;;31.76;31.43
72802;BME280;61891;55.818;37.084;2022-08-03T08:53:27;99670.28;;;32.21;31.18
72802;BME280;61891;55.818;37.084;2022-08-03T08:55:58;99664.03;;;32.61;29.49
72802;BME280;61891;55.818;37.084;2022-08-03T08:58:29;99654.44;;;33.14;29.26
72802;BME280;61891;55.818;37.084;2022-08-03T09:00:55;99654.97;;;33.74;28.17
72802;BME280;61891;55.818;37.084;2022-08-03T09:03:21;99670.66;;;34.49;27.56
72802;BME280;61891;55.818;37.084;2022-08-03T09:05:47;99679.56;;;34.95;26.86
72802;BME280;61891;55.818;37.084;2022-08-03T09:08:13;99688.41;;;35.40;26.79
72802;BME280;61891;55.818;37.084;2022-08-03T09:10:39;99689.88;;;35.37;27.38
72802;BME280;61891;55.818;37.084;2022-08-03T09:13:06;99691.72;;;34.94;26.37
72802;BME280;61891;55.818;37.084;2022-08-03T09:15:32;99688.38;;;35.14;25.97
72802;BME280;61891;55.818;37.084;2022-08-03T09:17:59;99686.09;;;35.16;26.06
72802;BME280;61891;55.818;37.084;2022-08-03T09:20:28;99691.19;;;35.31;25.30
72802;BME280;61891;55.818;37.084;2022-08-03T09:23:14;99578.66;;;34.11;25.57
72802;BME280;61891;55.818;37.084;2022-08-03T09:25:42;99676.50;;;35.05;24.71
72802;BME280;61891;55.818;37.084;2022-08-03T09:28:15;99682.59;;;35.84;24.34
72802;BME280;61891;55.818;37.084;2022-08-03T09:30:43;99677.41;;;36.56;24.61
72802;BME280;61891;55.818;37.084;2022-08-03T09:33:13;99667.41;;;36.72;24.44
72802;BME280;61891;55.818;37.084;2022-08-03T09:35:43;99675.25;;;35.97;24.02
72802;BME280;61891;55.818;37.084;2022-08-03T09:38:18;99665.56;;;35.82;23.49
72802;BME280;61891;55.818;37.084;2022-08-03T09:40:45;99686.47;;;35.58;25.24
72802;BME280;61891;55.818;37.084;2022-08-03T09:43:11;99688.09;;;35.76;23.92
72802;BME280;61891;55.818;37.084;2022-08-03T09:45:38;99680.00;;;36.52;23.66
72802;BME280;61891;55.818;37.084;2022-08-03T09:48:26;99684.84;;;37.64;22.05
72802;BME280;61891;55.818;37.084;2022-08-03T09:50:58;99687.69;;;38.55;22.27
72802;BME280;61891;55.818;37.084;2022-08-03T09:53:25;99673.84;;;38.67;22.48
72802;BME280;61891;55.818;37.084;2022-08-03T09:55:58;99685.81;;;38.34;21.91
72802;BME280;61891;55.818;37.084;2022-08-03T09:58:26;99689.63;;;37.14;22.42
72802;BME280;61891;55.818;37.084;2022-08-03T10:01:03;99646.47;;;36.15;22.27
72802;BME280;61891;55.818;37.084;2022-08-03T10:03:34;99686.16;;;35.68;23.03
72802;BME280;61891;55.818;37.084;2022-08-03T10:06:19;99682.88;;;35.22;22.86
72802;BME280;61891;55.818;37.084;2022-08-03T10:09:04;99682.38;;;35.29;23.81
72802;BME280;61891;55.818;37.084;2022-08-03T10:11:32;99673.56;;;36.31;23.70
72802;BME280;61891;55.818;37.084;2022-08-03T10:14:04;99653.38;;;36.86;23.63
72802;BME280;61891;55.818;37.084;2022-08-03T10:16:35;99596.56;;;36.97;22.80
72802;BME280;61891;55.818;37.084;2022-08-03T10:19:06;99650.31;;;37.50;21.44
72802;BME280;61891;55.818;37.084;2022-08-03T10:21:36;99697.25;;;38.00;21.44
72802;BME280;61891;55.818;37.084;2022-08-03T10:24:05;99688.59;;;38.47;21.56
72802;BME280;61891;55.818;37.084;2022-08-03T10:26:37;99685.97;;;38.99;20.63
72802;BME280;61891;55.818;37.084;2022-08-03T10:29:08;99678.53;;;39.68;19.67
72802;BME280;61891;55.818;37.084;2022-08-03T10:31:41;99686.69;;;40.48;19.20
72802;BME280;61891;55.818;37.084;2022-08-03T10:34:18;99694.69;;;41.16;19.05
72802;BME280;61891;55.818;37.084;2022-08-03T10:36:48;99672.75;;;41.65;19.65
72802;BME280;61891;55.818;37.084;2022-08-03T10:39:18;99675.13;;;42.05;19.11
72802;BME280;61891;55.818;37.084;2022-08-03T10:41:44;99703.31;;;42.23;19.16
72802;BME280;61891;55.818;37.084;2022-08-03T10:44:19;99660.72;;;42.23;18.23
72802;BME280;61891;55.818;37.084;2022-08-03T10:46:50;99666.09;;;42.35;17.86
72802;BME280;61891;55.818;37.084;2022-08-03T10:49:19;99702.75;;;42.83;17.42
72802;BME280;61891;55.818;37.084;2022-08-03T10:51:46;99701.16;;;43.08;18.39
72802;BME280;61891;55.818;37.084;2022-08-03T11:00:06;99694.22;;;43.55;17.02
72802;BME280;61891;55.818;37.084;2022-08-03T11:05:30;99693.53;;;44.35;16.76
72802;BME280;61891;55.818;37.084;2022-08-03T11:10:48;99715.34;;;43.82;16.76
72802;BME280;61891;55.818;37.084;2022-08-03T11:13:16;99706.22;;;43.55;16.07
72802;BME280;61891;55.818;37.084;2022-08-03T11:15:45;99701.34;;;43.49;16.15
72802;BME280;61891;55.818;37.084;2022-08-03T11:18:12;99705.78;;;43.83;15.79
72802;BME280;61891;55.818;37.084;2022-08-03T11:20:58;99691.94;;;43.97;15.68
72802;BME280;61891;55.818;37.084;2022-08-03T11:23:42;99703.53;;;43.99;15.39
72802;BME280;61891;55.818;37.084;2022-08-03T11:26:18;99698.38;;;43.64;14.83
72802;BME280;61891;55.818;37.084;2022-08-03T11:28:47;99699.31;;;42.66;16.64
72802;BME280;61891;55.818;37.084;2022-08-03T11:34:07;99696.81;;;41.96;16.40
72802;BME280;61891;55.818;37.084;2022-08-03T11:39:42;99700.03;;;41.98;15.79
72802;BME280;61891;55.818;37.084;2022-08-03T11:44:59;99694.34;;;42.56;15.69
72802;BME280;61891;55.818;37.084;2022-08-03T11:47:26;99689.81;;;42.71;15.70
72802;BME280;61891;55.818;37.084;2022-08-03T11:49:57;99690.38;;;43.33;14.91
72802;BME280;61891;55.818;37.084;2022-08-03T11:52:26;99698.72;;;43.96;15.39
72802;BME280;61891;55.818;37.084;2022-08-03T11:54:52;99700.78;;;44.40;15.14
72802;BME280;61891;55.818;37.084;2022-08-03T11:57:32;99689.69;;;44.98;14.37
72802;BME280;61891;55.818;37.084;2022-08-03T11:59:59;99686.34;;;45.51;14.92
72802;BME280;61891;55.818;37.084;2022-08-03T12:02:25;99696.56;;;45.15;14.89
72802;BME280;61891;55.818;37.084;2022-08-03T12:07:23;99693.63;;;45.63;14.50
72802;BME280;61891;55.818;37.084;2022-08-03T12:12:33;99687.41;;;46.62;14.36
72802;BME280;61891;55.818;37.084;2022-08-03T12:14:59;99682.91;;;44.48;14.73
72802;BME280;61891;55.818;37.084;2022-08-03T12:17:35;99675.31;;;42.85;15.32
72802;BME280;61891;55.818;37.084;2022-08-03T12:20:03;99676.56;;;41.61;16.41
72802;BME280;61891;55.818;37.084;2022-08-03T12:22:33;99667.22;;;40.79;16.55
72802;BME280;61891;55.818;37.084;2022-08-03T12:24:59;99674.34;;;42.05;16.76
72802;BME280;61891;55.818;37.084;2022-08-03T12:27:25;99684.75;;;43.96;15.80
72802;BME280;61891;55.818;37.084;2022-08-03T12:29:55;99678.34;;;45.50;14.98
72802;BME280;61891;55.818;37.084;2022-08-03T12:32:22;99675.97;;;45.52;14.72
72802;BME280;61891;55.818;37.084;2022-08-03T12:34:48;99666.94;;;46.22;14.38
72802;BME280;61891;55.818;37.084;2022-08-03T12:37:21;99676.13;;;47.26;13.50
72802;BME280;61891;55.818;37.084;2022-08-03T12:39:55;99678.28;;;47.85;13.93
72802;BME280;61891;55.818;37.084;2022-08-03T12:42:36;99682.09;;;48.19;12.55
72802;BME280;61891;55.818;37.084;2022-08-03T12:45:21;99686.66;;;48.54;12.48
72802;BME280;61891;55.818;37.084;2022-08-03T12:50:23;99676.88;;;49.41;12.40
72802;BME280;61891;55.818;37.084;2022-08-03T12:52:49;99683.59;;;49.81;12.87
72802;BME280;61891;55.818;37.084;2022-08-03T12:55:20;99674.19;;;49.64;12.07
72802;BME280;61891;55.818;37.084;2022-08-03T12:57:46;99683.75;;;48.06;12.94
72802;BME280;61891;55.818;37.084;2022-08-03T13:00:16;99657.56;;;45.58;13.33
72802;BME280;61891;55.818;37.084;2022-08-03T13:02:43;99675.88;;;43.87;15.21
72802;BME280;61891;55.818;37.084;2022-08-03T13:05:10;99659.13;;;42.02;15.86
72802;BME280;61891;55.818;37.084;2022-08-03T13:07:44;99670.69;;;40.76;16.36
72802;BME280;61891;55.818;37.084;2022-08-03T13:10:11;99686.66;;;39.60;17.07
72802;BME280;61891;55.818;37.084;2022-08-03T13:12:51;99683.28;;;38.54;17.79
72802;BME280;61891;55.818;37.084;2022-08-03T13:15:17;99680.22;;;37.77;18.57
72802;BME280;61891;55.818;37.084;2022-08-03T13:17:43;99678.56;;;37.14;19.09
72802;BME280;61891;55.818;37.084;2022-08-03T13:20:09;99670.97;;;36.34;19.42
72802;BME280;61891;55.818;37.084;2022-08-03T13:22:35;99675.59;;;35.87;20.15
72802;BME280;61891;55.818;37.084;2022-08-03T13:25:01;99673.97;;;35.60;20.32
72802;BME280;61891;55.818;37.084;2022-08-03T13:27:30;99668.78;;;35.41;20.56
72802;BME280;61891;55.818;37.084;2022-08-03T13:29:57;99654.16;;;35.06;20.70
72802;BME280;61891;55.818;37.084;2022-08-03T13:32:23;99668.91;;;35.10;21.14
72802;BME280;61891;55.818;37.084;2022-08-03T13:34:48;99685.34;;;35.33;21.41
72802;BME280;61891;55.818;37.084;2022-08-03T13:37:14;99683.97;;;35.13;22.07
72802;BME280;61891;55.818;37.084;2022-08-03T13:39:40;99676.66;;;35.00;22.33